EGQL/ADX METAR and TAF weather

Enter ICAO airport designator
Station Type Date Time Source
EGQL METAR 2022/08/16 18:50 UTC NOAA

EGQL 161850Z 04010KT 9999 BKN039 14/09 Q1014 RMK BLU


Station Type Date Time Source
EGQL Decoded METAR 2022/08/16 18:50 UTC NOAA

Leuchars, United Kingdom (EGQL) 56-23N 002-52W 0M
Aug 16, 2022 - 02:50 PM EDT / 2022.08.16 1850 UTC
Wind: from the NE (040 degrees) at 12 MPH (10 KT):0
Visibility: greater than 7 mile(s):0
Sky conditions: mostly cloudy
Temperature: 57 F (14 C)
Dew Point: 48 F (9 C)
Relative Humidity: 71%
Pressure (altimeter): 29.94 in. Hg (1014 hPa)
ob: EGQL 161850Z 04010KT 9999 BKN039 14/09 Q1014 RMK BLU
cycle: 19

Station Type Date Time Source
EGQL TAF 2011/07/27 06:03 UTC NOAA

TAF TAF
AMD EGQL 270424Z 2706/2724 14005KT 9999 BKN020 PROB30
TEMPO 2706/2708 SCT012
BECMG 2708/2710 SCT025

Example: see airport list